Terminal Aerodrome Forecast
Issued by NWS Cleveland, OH

Home | Current Version | Previous Version | Text Only | Print | Product List | Glossary On
Versions: 1 2 3 4 5 6 7 8 9 10 11 12 13 14 15 16 17 18 19 20
293
FTUS41 KCLE 251921 AAA
TAFMFD
TAF AMD
KMFD 251921Z 2519/2618 35006KT P6SM BKN030
     FM252200 VRB04KT P6SM SCT035
     FM261100 VRB03KT 5SM BR SKC
     FM261300 17006KT P6SM SKC=

USA.gov is the U.S. government's official web portal to all federal, state and local government web resources and services.